Time;durP1;ratioP1;P1;durP2;ratioP2;P2;SDS_P1;SDS_P2;PMS_P1;PMS_P2;Temp;Humidity;BMP_temperature;BMP_pressure;BME280_temperature;BME280_humidity;BME280_pressure;Samples;Min_cycle;Max_cycle;Signal;HPM_P1;HPM_P2
2022/11/10 00:01:07;;;;;;;2.03;0.70;;;24.00;61.80;;;;;;5012380;28;20386;-85
2022/11/10 00:03:37;;;;;;;1.87;0.90;;;23.80;61.30;;;;;;5012345;28;20390;-81
2022/11/10 00:06:05;;;;;;;1.40;0.60;;;23.80;63.10;;;;;;5012126;28;20418;-81
2022/11/10 00:08:33;;;;;;;0.70;0.50;;;24.00;63.50;;;;;;5012400;28;20411;-82
2022/11/10 00:11:05;;;;;;;2.77;0.60;;;24.30;61.50;;;;;;5012317;28;20490;-81
2022/11/10 00:16:59;;;;;;;1.65;0.60;;;24.30;59.60;;;;;;5012494;28;20465;-80
2022/11/10 00:19:07;;;;;;;2.33;0.80;;;24.10;62.30;;;;;;5011793;28;20410;-80
2022/11/10 00:21:35;;;;;;;1.88;0.77;;;24.30;62.90;;;;;;5012089;28;20433;-81
2022/11/10 00:24:02;;;;;;;2.50;0.77;;;24.80;62.40;;;;;;5011944;28;20429;-82
2022/11/10 00:26:29;;;;;;;2.17;0.60;;;25.00;61.30;;;;;;5011886;28;20394;-81
2022/11/10 00:28:56;;;;;;;2.70;0.70;;;25.40;60.60;;;;;;5011765;28;20407;-80
2022/11/10 00:31:23;;;;;;;0.90;0.57;;;25.80;61.40;;;;;;5011590;28;20409;-85
2022/11/10 00:33:50;;;;;;;1.43;0.60;;;26.10;60.80;;;;;;5010383;28;20462;-84
2022/11/10 00:36:17;;;;;;;1.60;0.65;;;26.50;59.70;;;;;;5011683;28;20383;-84
2022/11/10 00:38:44;;;;;;;2.40;0.50;;;26.90;57.10;;;;;;5011505;28;20891;-83
2022/11/10 00:41:11;;;;;;;1.77;0.60;;;27.20;58.50;;;;;;5000927;28;20388;-84
2022/11/10 00:43:38;;;;;;;2.03;0.70;;;27.10;56.80;;;;;;5008812;28;20502;-84
2022/11/10 00:46:05;;;;;;;1.35;0.60;;;26.50;55.70;;;;;;5011403;28;20906;-82
2022/11/10 00:48:32;;;;;;;2.60;0.80;;;26.20;57.20;;;;;;5011335;28;20415;-80
2022/11/10 00:50:59;;;;;;;1.80;0.70;;;26.70;58.60;;;;;;5011428;28;20863;-81
2022/11/10 00:53:26;;;;;;;2.67;0.70;;;27.00;59.10;;;;;;5011445;28;20380;-81
2022/11/10 00:55:53;;;;;;;1.50;0.70;;;27.20;56.70;;;;;;5011141;28;20383;-80
2022/11/10 00:58:20;;;;;;;2.75;0.70;;;27.40;57.50;;;;;;5011367;28;20383;-82
2022/11/10 01:00:47;;;;;;;2.50;0.60;;;27.30;56.70;;;;;;5011185;28;20397;-83
2022/11/10 01:03:18;;;;;;;2.58;0.70;;;27.30;56.40;;;;;;5011329;28;20394;-82
2022/11/10 01:05:45;;;;;;;1.38;0.60;;;27.20;55.90;;;;;;4998188;28;20416;-82
2022/11/10 01:08:12;;;;;;;1.30;0.80;;;26.80;56.60;;;;;;5010840;28;20410;-82
2022/11/10 01:10:39;;;;;;;3.47;0.80;;;26.80;57.90;;;;;;4999757;28;20499;-84
2022/11/10 01:13:06;;;;;;;2.30;0.90;;;26.90;57.30;;;;;;5009040;28;20390;-82
2022/11/10 01:15:33;;;;;;;1.98;0.77;;;26.90;58.20;;;;;;5011119;28;20429;-85
2022/11/10 01:18:00;;;;;;;2.78;0.90;;;27.10;57.80;;;;;;5011035;28;20470;-83
2022/11/10 01:20:27;;;;;;;1.50;0.70;;;26.90;58.30;;;;;;5011245;28;20866;-84
2022/11/10 01:22:54;;;;;;;2.33;0.77;;;26.40;56.10;;;;;;5011093;28;20445;-80
2022/11/10 01:25:21;;;;;;;1.20;0.60;;;26.00;58.20;;;;;;5011230;28;20882;-82
2022/11/10 01:27:48;;;;;;;2.80;0.82;;;26.60;59.50;;;;;;5011251;28;20438;-82
2022/11/10 01:30:15;;;;;;;0.90;0.60;;;27.10;58.50;;;;;;5005688;28;20484;-81
2022/11/10 01:32:42;;;;;;;3.50;0.60;;;27.30;55.50;;;;;;5000461;28;20446;-85
2022/11/10 01:35:10;;;;;;;1.30;0.60;;;27.00;56.00;;;;;;5010599;28;20391;-81
2022/11/10 01:37:37;;;;;;;1.88;0.70;;;27.10;55.00;;;;;;5010998;28;20996;-84
2022/11/10 01:40:05;;;;;;;5.90;1.13;;;27.40;55.30;;;;;;5010512;28;20387;-81
2022/11/10 01:42:48;;;;;;;3.83;1.00;;;28.50;56.10;;;;;;5002499;28;20369;-82
2022/11/10 01:45:25;;;;;;;1.67;0.73;;;28.90;54.50;;;;;;5007261;28;20513;-82
2022/11/10 01:48:02;;;;;;;1.48;0.77;;;29.10;53.30;;;;;;5011567;28;20407;-83
2022/11/10 01:50:35;;;;;;;2.42;0.60;;;28.70;53.70;;;;;;5012132;28;20383;-84
2022/11/10 01:53:08;;;;;;;1.48;0.60;;;27.80;55.50;;;;;;5012641;28;20407;-82
2022/11/10 01:55:38;;;;;;;1.50;0.73;;;27.30;56.40;;;;;;5011755;28;20371;-82
2022/11/10 01:58:05;;;;;;;1.50;0.70;;;27.30;57.40;;;;;;5004889;28;20459;-82
2022/11/10 02:00:32;;;;;;;1.90;0.80;;;27.50;57.70;;;;;;5004823;28;20383;-81
2022/11/10 02:03:15;;;;;;;2.25;0.82;;;28.00;58.10;;;;;;5012391;28;20391;-81
2022/11/10 02:05:43;;;;;;;1.47;0.80;;;29.40;57.00;;;;;;5012700;28;20371;-85
2022/11/10 02:08:14;;;;;;;4.25;0.90;;;30.90;54.50;;;;;;5012651;28;20961;-85
2022/11/10 02:10:41;;;;;;;2.17;0.90;;;31.10;52.50;;;;;;5015347;28;20372;-84
2022/11/10 02:13:10;;;;;;;1.45;0.80;;;30.50;50.90;;;;;;5016147;28;20368;-83
2022/11/10 02:15:37;;;;;;;1.55;0.82;;;29.50;52.20;;;;;;5017412;28;20418;-82
2022/11/10 02:18:04;;;;;;;4.53;0.95;;;28.40;53.50;;;;;;5002804;28;20381;-87
2022/11/10 02:20:31;;;;;;;2.63;0.90;;;27.70;55.10;;;;;;5016814;28;20740;-85
2022/11/10 02:22:58;;;;;;;1.52;1.00;;;27.50;57.20;;;;;;5016720;28;20386;-85
2022/11/10 02:25:31;;;;;;;2.33;1.10;;;28.10;57.60;;;;;;5015341;28;20831;-81
2022/11/10 02:27:58;;;;;;;1.50;1.00;;;28.90;55.10;;;;;;5014763;28;20886;-81
2022/11/10 02:30:25;;;;;;;2.28;0.90;;;28.70;55.80;;;;;;5014434;28;20399;-80
2022/11/10 02:32:52;;;;;;;2.28;1.00;;;28.30;54.70;;;;;;5015891;28;20406;-85
2022/11/10 02:35:19;;;;;;;2.27;1.07;;;27.90;55.20;;;;;;5015985;28;20382;-82
2022/11/10 02:37:46;;;;;;;2.83;0.98;;;27.80;55.60;;;;;;5014743;28;20402;-81
2022/11/10 02:40:13;;;;;;;1.98;1.00;;;28.00;55.40;;;;;;5014962;28;20433;-86
2022/11/10 02:42:40;;;;;;;2.88;1.00;;;29.30;56.40;;;;;;5016905;28;20410;-84
2022/11/10 02:45:07;;;;;;;1.08;0.90;;;30.80;51.50;;;;;;5019215;28;20778;-84
2022/11/10 02:47:34;;;;;;;1.15;0.80;;;32.20;51.00;;;;;;5009279;28;20403;-82
2022/11/10 02:50:01;;;;;;;1.10;0.90;;;33.20;48.10;;;;;;5009925;28;20387;-84
2022/11/10 02:52:28;;;;;;;2.15;0.85;;;33.80;46.80;;;;;;5008218;28;20383;-87
2022/11/10 02:54:55;;;;;;;2.25;0.90;;;34.60;46.30;;;;;;5016309;28;20397;-82
2022/11/10 02:57:22;;;;;;;2.70;0.90;;;34.30;47.10;;;;;;5015210;28;20719;-86
2022/11/10 02:59:49;;;;;;;3.47;1.00;;;33.00;47.20;;;;;;5002298;28;20382;-84
2022/11/10 03:02:16;;;;;;;2.00;0.98;;;31.30;49.50;;;;;;5015209;28;20395;-81
2022/11/10 03:04:43;;;;;;;2.22;0.90;;;30.10;50.90;;;;;;5015727;28;20403;-81
2022/11/10 03:07:10;;;;;;;1.45;0.90;;;28.90;53.00;;;;;;5015415;28;20383;-82
2022/11/10 03:09:37;;;;;;;4.40;1.00;;;28.30;54.60;;;;;;5014569;28;20449;-85
2022/11/10 03:12:04;;;;;;;2.83;1.00;;;28.00;54.80;;;;;;5014571;28;20422;-86
2022/11/10 03:14:31;;;;;;;2.50;1.02;;;28.30;54.80;;;;;;5014945;28;20379;-83
2022/11/10 03:16:58;;;;;;;2.08;0.80;;;28.30;55.60;;;;;;5015024;28;20720;-81
2022/11/10 03:19:25;;;;;;;1.45;1.00;;;28.80;54.70;;;;;;5014378;28;20386;-85
2022/11/10 03:21:51;;;;;;;1.00;0.90;;;28.60;54.40;;;;;;5014524;28;20371;-82
2022/11/10 03:24:18;;;;;;;2.92;1.10;;;28.20;55.90;;;;;;5014048;28;20434;-84
2022/11/10 03:26:45;;;;;;;2.13;0.98;;;27.90;55.30;;;;;;5014343;28;20731;-86
2022/11/10 03:29:12;;;;;;;3.40;0.93;;;27.50;55.70;;;;;;5014085;28;20944;-83
2022/11/10 03:31:39;;;;;;;2.30;1.00;;;27.20;56.90;;;;;;5014407;28;20375;-82
2022/11/10 03:34:06;;;;;;;1.40;1.00;;;27.10;57.10;;;;;;5014428;28;20430;-83
2022/11/10 03:36:33;;;;;;;2.55;1.00;;;27.00;56.90;;;;;;5012823;28;20378;-84
2022/11/10 03:39:00;;;;;;;2.70;0.90;;;26.90;56.60;;;;;;5002040;28;20449;-85
2022/11/10 03:41:31;;;;;;;1.20;1.00;;;26.90;57.10;;;;;;5013804;28;21493;-84
2022/11/10 03:43:58;;;;;;;2.78;1.25;;;27.10;56.20;;;;;;5014009;28;20391;-81
2022/11/10 03:46:25;;;;;;;2.83;1.40;;;28.00;57.10;;;;;;5013753;28;20803;-83
2022/11/10 03:48:52;;;;;;;2.72;0.90;;;29.80;54.20;;;;;;5013638;28;20399;-84
2022/11/10 03:51:19;;;;;;;1.58;0.90;;;30.20;52.70;;;;;;5013985;28;20379;-81
2022/11/10 03:53:46;;;;;;;2.30;0.80;;;30.30;51.80;;;;;;5013506;28;20770;-84
2022/11/10 03:56:12;;;;;;;1.73;0.70;;;29.90;53.00;;;;;;5009448;28;20857;-82
2022/11/10 03:58:40;;;;;;;1.88;0.80;;;30.70;52.30;;;;;;5004937;28;20731;-85
2022/11/10 04:01:07;;;;;;;2.95;0.80;;;31.80;52.10;;;;;;5010537;28;20933;-83
2022/11/10 04:03:34;;;;;;;3.15;0.73;;;32.90;50.20;;;;;;5003718;28;20414;-83
2022/11/10 04:08:58;;;;;;;2.00;0.80;;;31.70;49.90;;;;;;5003998;28;20466;-82
2022/11/10 04:17:01;;;;;;;2.85;0.70;;;31.40;50.80;;;;;;5013671;28;20378;-82
2022/11/10 04:19:28;;;;;;;1.10;0.70;;;30.30;51.50;;;;;;5013600;28;20384;-81
2022/11/10 04:21:55;;;;;;;1.03;0.70;;;29.20;52.60;;;;;;5014491;28;20389;-81
2022/11/10 04:24:22;;;;;;;1.83;0.80;;;28.30;55.20;;;;;;5014615;28;20391;-83
2022/11/10 04:26:49;;;;;;;2.40;0.70;;;27.60;55.20;;;;;;5014346;28;20474;-81
2022/11/10 04:29:18;;;;;;;2.30;0.70;;;27.10;57.30;;;;;;5014377;28;20407;-82
2022/11/10 04:31:45;;;;;;;1.63;0.77;;;26.90;57.40;;;;;;5014017;28;20372;-80
2022/11/10 04:34:14;;;;;;;2.00;0.80;;;26.60;57.70;;;;;;5014246;28;20375;-83
2022/11/10 04:36:43;;;;;;;1.47;0.83;;;26.40;58.00;;;;;;5014500;28;20414;-82
2022/11/10 04:39:10;;;;;;;1.60;0.73;;;26.20;59.10;;;;;;5006478;28;20435;-84
2022/11/10 04:41:37;;;;;;;1.98;0.80;;;26.60;60.40;;;;;;5015916;28;20387;-82
2022/11/10 04:44:05;;;;;;;2.28;0.77;;;28.20;58.10;;;;;;5015918;28;20379;-83
2022/11/10 04:46:37;;;;;;;1.83;0.80;;;29.80;54.70;;;;;;5014820;28;20478;-85
2022/11/10 04:49:06;;;;;;;1.30;0.70;;;31.40;53.10;;;;;;5012860;28;20494;-81
2022/11/10 04:51:36;;;;;;;1.80;0.80;;;32.20;51.60;;;;;;5013675;28;20375;-83
2022/11/10 04:54:04;;;;;;;1.90;0.70;;;32.90;50.00;;;;;;5011558;28;20387;-83
2022/11/10 04:56:33;;;;;;;1.40;0.80;;;33.80;49.10;;;;;;5011206;28;20732;-83
2022/11/10 04:59:00;;;;;;;1.95;0.70;;;33.90;48.70;;;;;;5010541;28;20456;-84
2022/11/10 05:01:27;;;;;;;2.30;0.70;;;33.80;49.10;;;;;;5007837;28;20376;-85
2022/11/10 05:03:55;;;;;;;3.20;0.77;;;33.70;48.80;;;;;;5005761;28;20385;-82
2022/11/10 05:06:22;;;;;;;2.58;0.70;;;32.90;48.60;;;;;;5013068;28;20371;-83
2022/11/10 05:08:49;;;;;;;3.03;0.80;;;31.60;50.50;;;;;;4998369;28;20408;-84
2022/11/10 05:11:16;;;;;;;1.60;0.70;;;30.20;52.60;;;;;;5008940;28;20375;-83
2022/11/10 05:13:44;;;;;;;3.20;0.85;;;29.30;54.60;;;;;;5001729;28;20395;-85
2022/11/10 05:16:12;;;;;;;2.20;0.73;;;29.80;54.80;;;;;;5002167;28;20892;-83
2022/11/10 05:18:40;;;;;;;2.13;0.75;;;30.60;53.30;;;;;;5012840;28;20480;-84
2022/11/10 05:21:07;;;;;;;1.42;0.60;;;31.00;53.10;;;;;;5009432;28;20381;-82
2022/11/10 05:23:37;;;;;;;3.63;0.80;;;31.80;52.10;;;;;;5013542;28;20411;-81
2022/11/10 05:26:09;;;;;;;2.53;0.80;;;32.20;50.60;;;;;;5013444;28;20375;-82
2022/11/10 05:28:37;;;;;;;1.70;0.70;;;32.10;51.40;;;;;;4999395;28;20490;-82
2022/11/10 05:31:05;;;;;;;3.88;0.73;;;31.90;52.00;;;;;;5010291;28;20383;-85
2022/11/10 05:33:33;;;;;;;1.70;0.70;;;32.20;51.40;;;;;;5017691;28;20379;-84
2022/11/10 05:36:00;;;;;;;2.47;0.80;;;32.50;50.70;;;;;;5018088;28;20539;-82
2022/11/10 05:38:28;;;;;;;2.58;0.80;;;32.50;50.70;;;;;;5008516;28;20416;-85
2022/11/10 05:40:55;;;;;;;2.67;0.80;;;32.40;50.90;;;;;;5016443;28;20380;-84
2022/11/10 05:43:23;;;;;;;1.13;0.70;;;32.40;50.90;;;;;;5015910;28;20896;-84
2022/11/10 05:45:50;;;;;;;3.60;1.00;;;32.40;51.20;;;;;;5014536;28;20406;-82
2022/11/10 05:48:17;;;;;;;4.47;0.80;;;32.70;51.40;;;;;;5000786;28;20454;-81
2022/11/10 05:50:44;;;;;;;3.00;0.70;;;32.60;50.50;;;;;;5002217;28;20882;-86
2022/11/10 05:53:12;;;;;;;1.97;0.70;;;32.60;50.10;;;;;;5012790;28;20380;-84
2022/11/10 05:55:39;;;;;;;1.73;0.70;;;32.40;50.20;;;;;;5012370;28;20390;-82
2022/11/10 05:58:06;;;;;;;2.15;0.80;;;32.40;51.00;;;;;;5002422;28;20389;-83
2022/11/10 06:00:34;;;;;;;2.75;0.70;;;32.30;50.00;;;;;;5005198;28;20386;-84
2022/11/10 06:03:10;;;;;;;3.30;0.80;;;31.60;51.10;;;;;;5012354;28;20394;-82
2022/11/10 06:05:37;;;;;;;3.33;0.77;;;31.60;51.40;;;;;;5011771;28;20444;-82
2022/11/10 06:08:05;;;;;;;2.22;0.88;;;32.00;50.80;;;;;;5017765;28;20779;-85
2022/11/10 06:10:34;;;;;;;2.67;0.90;;;31.90;50.20;;;;;;5004525;28;20469;-80
2022/11/10 06:13:01;;;;;;;2.13;0.80;;;31.80;50.40;;;;;;5005185;28;20382;-83
2022/11/10 06:15:28;;;;;;;2.37;0.70;;;31.80;50.10;;;;;;5010991;28;20395;-85
2022/11/10 06:17:56;;;;;;;1.20;0.70;;;31.80;50.40;;;;;;5012977;28;20537;-87
2022/11/10 06:20:25;;;;;;;4.82;1.50;;;31.70;48.90;;;;;;5015582;28;20391;-86
2022/11/10 06:23:21;;;;;;;1.75;0.85;;;31.50;49.80;;;;;;5013392;28;20379;-82
2022/11/10 06:25:48;;;;;;;1.73;0.80;;;31.00;50.30;;;;;;4963351;28;20412;-81
2022/11/10 06:28:16;;;;;;;0.90;0.63;;;31.00;50.40;;;;;;4957049;28;20407;-83
2022/11/10 06:30:42;;;;;;;1.60;0.73;;;31.20;49.90;;;;;;4971326;28;20404;-83
2022/11/10 06:33:10;;;;;;;1.50;0.70;;;31.40;49.80;;;;;;4969199;28;20410;-84
2022/11/10 06:35:37;;;;;;;1.83;0.77;;;31.20;48.70;;;;;;4973028;28;20453;-84
2022/11/10 06:38:06;;;;;;;3.50;0.98;;;30.80;49.40;;;;;;4973472;28;20866;-80
2022/11/10 06:40:33;;;;;;;15.02;1.45;;;30.40;49.70;;;;;;4970020;28;20391;-83
2022/11/10 06:43:00;;;;;;;1.50;0.70;;;30.40;50.20;;;;;;4973380;28;20445;-84
2022/11/10 06:45:28;;;;;;;2.22;0.80;;;30.60;49.70;;;;;;4961152;28;20387;-84
2022/11/10 06:48:11;;;;;;;1.92;0.70;;;30.80;49.00;;;;;;4963516;28;20400;-83
2022/11/10 06:50:38;;;;;;;1.27;0.70;;;31.10;48.90;;;;;;4971933;28;20603;-83
2022/11/10 06:53:05;;;;;;;1.27;0.70;;;30.80;48.90;;;;;;4973836;28;20435;-83
2022/11/10 06:55:32;;;;;;;2.25;0.70;;;30.60;49.50;;;;;;4961881;28;20410;-82
2022/11/10 06:57:59;;;;;;;1.63;0.70;;;30.40;50.10;;;;;;4967661;28;20380;-83
2022/11/10 07:00:28;;;;;;;1.52;0.70;;;30.30;50.00;;;;;;4966285;28;20396;-84
2022/11/10 07:03:02;;;;;;;1.13;0.70;;;30.00;50.20;;;;;;4989185;28;20406;-83
2022/11/10 07:05:30;;;;;;;3.90;0.70;;;29.80;51.40;;;;;;5006194;28;20409;-84
2022/11/10 07:08:02;;;;;;;2.25;0.60;;;29.70;50.30;;;;;;4996422;28;20916;-85
2022/11/10 07:10:29;;;;;;;2.00;0.60;;;29.50;50.50;;;;;;5000685;28;20400;-82
2022/11/10 07:13:01;;;;;;;1.83;0.70;;;29.10;51.30;;;;;;5010157;28;20406;-84
2022/11/10 07:15:32;;;;;;;2.90;0.70;;;28.70;51.70;;;;;;5013942;28;20470;-83
2022/11/10 07:17:59;;;;;;;1.58;0.70;;;28.40;52.40;;;;;;5013301;28;20379;-83
2022/11/10 07:20:27;;;;;;;2.55;0.70;;;27.90;53.10;;;;;;5000974;28;20403;-82
2022/11/10 07:22:59;;;;;;;2.38;0.70;;;27.60;53.50;;;;;;4996746;28;20414;-84
2022/11/10 07:25:27;;;;;;;1.63;0.70;;;27.40;54.10;;;;;;5014147;28;20375;-82
2022/11/10 07:28:01;;;;;;;1.15;0.60;;;27.20;54.50;;;;;;5013792;28;20434;-82
2022/11/10 07:30:29;;;;;;;1.38;0.60;;;26.90;54.60;;;;;;5011585;28;20410;-84
2022/11/10 07:33:04;;;;;;;3.50;1.40;;;26.50;55.70;;;;;;5004384;28;20482;-84
2022/11/10 07:35:33;;;;;;;6.93;4.65;;;25.90;57.20;;;;;;4997921;28;20447;-83
2022/11/10 07:38:09;;;;;;;20.05;14.85;;;25.50;58.10;;;;;;4995242;28;20531;-80
2022/11/10 07:40:37;;;;;;;6.03;2.33;;;25.50;58.20;;;;;;4992535;28;20396;-82
2022/11/10 07:43:04;;;;;;;13.60;1.70;;;25.20;58.50;;;;;;5005955;28;20435;-83
2022/11/10 07:45:31;;;;;;;9.23;1.33;;;24.80;59.20;;;;;;5008582;28;20396;-80
2022/11/10 07:48:02;;;;;;;3.08;0.80;;;24.50;60.00;;;;;;4994123;28;20420;-82
2022/11/10 07:50:30;;;;;;;1.83;0.80;;;24.00;61.20;;;;;;5002244;28;20755;-81
2022/11/10 07:53:10;;;;;;;1.45;0.77;;;23.60;62.70;;;;;;4999783;28;20963;-82
2022/11/10 07:55:39;;;;;;;1.55;0.60;;;23.30;64.30;;;;;;4993556;28;20396;-81
2022/11/10 07:58:06;;;;;;;2.05;0.77;;;22.90;65.30;;;;;;4994114;28;20395;-82
2022/11/10 08:00:33;;;;;;;2.83;1.00;;;22.70;66.40;;;;;;5002395;28;20427;-81
2022/11/10 08:03:12;;;;;;;1.90;0.80;;;22.50;67.10;;;;;;4997783;28;20395;-81
2022/11/10 08:05:39;;;;;;;2.38;0.80;;;22.40;67.60;;;;;;4997580;28;20501;-82
2022/11/10 08:08:07;;;;;;;2.47;0.90;;;22.10;67.90;;;;;;4999205;28;20441;-84
2022/11/10 08:10:34;;;;;;;3.47;0.77;;;22.00;68.70;;;;;;5010667;28;20402;-82
2022/11/10 08:13:04;;;;;;;4.30;0.90;;;21.80;69.80;;;;;;4988140;28;20452;-84
2022/11/10 08:15:33;;;;;;;2.38;1.00;;;21.50;70.10;;;;;;5017256;28;20390;-82
2022/11/10 08:18:29;;;;;;;2.75;0.82;;;21.30;71.00;;;;;;5006092;28;20473;-82
2022/11/10 08:20:56;;;;;;;3.47;1.02;;;21.20;71.70;;;;;;4971542;28;20607;-82
2022/11/10 08:23:23;;;;;;;2.35;0.70;;;21.10;72.00;;;;;;4970951;28;20387;-83
2022/11/10 08:25:52;;;;;;;4.13;0.70;;;20.90;72.80;;;;;;4952970;28;20403;-79
2022/11/10 08:28:19;;;;;;;2.35;0.70;;;20.90;73.70;;;;;;4961372;28;20764;-80
2022/11/10 08:30:48;;;;;;;2.92;0.70;;;20.80;73.80;;;;;;4959327;28;20398;-80
2022/11/10 08:33:17;;;;;;;2.03;0.80;;;20.70;74.70;;;;;;4971133;28;20375;-83
2022/11/10 08:35:46;;;;;;;3.35;0.73;;;20.60;75.00;;;;;;4984021;28;20799;-81
2022/11/10 08:38:16;;;;;;;3.28;0.70;;;20.50;75.60;;;;;;4971027;28;20405;-82
2022/11/10 08:40:43;;;;;;;3.25;0.98;;;20.40;76.50;;;;;;4963889;28;20521;-82
2022/11/10 08:43:11;;;;;;;2.95;0.90;;;20.30;77.00;;;;;;4969754;28;20537;-82
2022/11/10 08:45:41;;;;;;;3.65;0.95;;;20.20;77.70;;;;;;4943951;29;20785;-81
2022/11/10 08:48:11;;;;;;;3.47;0.90;;;20.30;78.90;;;;;;4967755;28;20976;-81
2022/11/10 08:50:40;;;;;;;3.08;0.73;;;20.10;79.40;;;;;;4971643;28;20389;-82
2022/11/10 08:53:14;;;;;;;4.57;1.00;;;20.00;81.30;;;;;;4962641;28;20411;-83
2022/11/10 08:55:41;;;;;;;3.80;0.98;;;19.90;82.80;;;;;;4973046;28;20410;-82
2022/11/10 08:58:15;;;;;;;2.47;0.90;;;19.80;84.60;;;;;;5012187;28;20399;-84
2022/11/10 09:00:42;;;;;;;3.42;0.90;;;19.70;86.70;;;;;;5004072;28;20450;-82
2022/11/10 09:03:15;;;;;;;5.20;1.00;;;19.70;89.50;;;;;;5002585;28;20379;-82
2022/11/10 09:05:43;;;;;;;3.30;0.90;;;19.70;90.70;;;;;;5018291;28;20379;-81
2022/11/10 09:08:10;;;;;;;4.95;1.08;;;19.70;91.60;;;;;;5015657;28;20395;-81
2022/11/10 09:10:40;;;;;;;3.90;0.90;;;19.60;92.70;;;;;;5003077;28;20393;-81
2022/11/10 09:13:07;;;;;;;3.97;1.10;;;19.70;93.60;;;;;;5011022;28;20411;-81
2022/11/10 09:15:36;;;;;;;3.22;1.17;;;19.70;94.40;;;;;;4999409;28;20451;-82
2022/11/10 09:18:05;;;;;;;2.70;0.90;;;19.60;94.90;;;;;;5019987;28;20472;-82
2022/11/10 09:20:36;;;;;;;2.70;1.10;;;19.60;95.70;;;;;;5010668;28;20704;-82
2022/11/10 09:23:08;;;;;;;6.10;0.95;;;19.50;96.20;;;;;;5010609;28;20395;-82
2022/11/10 09:25:35;;;;;;;4.03;1.10;;;19.40;97.10;;;;;;4991577;28;20887;-83
2022/11/10 09:28:02;;;;;;;2.72;1.00;;;19.30;98.10;;;;;;5021685;28;20486;-81
2022/11/10 09:30:30;;;;;;;3.97;0.93;;;19.30;98.60;;;;;;5003719;28;20402;-82
2022/11/10 09:32:59;;;;;;;4.00;0.95;;;19.20;99.10;;;;;;5019391;28;20406;-82
2022/11/10 09:35:45;;;;;;;3.97;1.00;;;19.20;99.60;;;;;;5011890;28;20383;-81
2022/11/10 09:38:12;;;;;;;3.33;0.90;;;19.20;99.90;;;;;;5015579;28;20410;-82
2022/11/10 09:41:06;;;;;;;5.15;1.00;;;19.20;99.90;;;;;;5010003;28;20379;-83
2022/11/10 09:44:02;;;;;;;4.82;1.00;;;19.20;99.90;;;;;;4984336;28;20809;-81
2022/11/10 09:46:42;;;;;;;3.38;1.00;;;19.20;99.90;;;;;;5005797;28;20855;-82
2022/11/10 09:49:41;;;;;;;2.60;0.80;;;19.10;99.90;;;;;;5012033;28;20415;-81
2022/11/10 09:52:11;;;;;;;4.20;1.10;;;19.10;99.90;;;;;;5007342;28;20389;-82
2022/11/10 09:55:20;;;;;;;3.65;0.85;;;19.10;99.90;;;;;;5018208;28;20388;-82
2022/11/10 09:57:49;;;;;;;3.95;0.93;;;19.00;99.90;;;;;;4959913;28;20430;-81
2022/11/10 10:00:19;;;;;;;4.25;1.00;;;19.00;99.90;;;;;;4966802;28;20382;-82
2022/11/10 10:02:51;;;;;;;4.70;1.00;;;18.90;99.90;;;;;;4965949;28;20506;-81
2022/11/10 10:05:32;;;;;;;3.50;1.00;;;18.90;99.90;;;;;;4952864;28;20482;-82
2022/11/10 10:08:04;;;;;;;3.22;0.90;;;18.80;99.90;;;;;;4961087;28;20402;-81
2022/11/10 10:10:48;;;;;;;8.00;1.00;;;18.80;99.90;;;;;;4954164;28;20570;-82
2022/11/10 10:13:31;;;;;;;3.22;0.80;;;18.80;99.90;;;;;;4964134;28;20442;-82
2022/11/10 10:16:16;;;;;;;3.97;0.90;;;18.60;99.90;;;;;;4954236;28;20911;-83
2022/11/10 10:19:10;;;;;;;3.65;1.10;;;18.70;99.90;;;;;;4954844;28;20465;-83
2022/11/10 10:22:13;;;;;;;4.05;0.90;;;18.70;99.90;;;;;;4955332;28;20899;-82
2022/11/10 10:24:40;;;;;;;4.05;1.00;;;18.60;99.90;;;;;;4951849;28;20817;-83
2022/11/10 10:27:18;;;;;;;3.13;1.00;;;18.60;99.90;;;;;;4957723;28;20383;-82
2022/11/10 10:29:48;;;;;;;3.90;1.40;;;18.60;99.90;;;;;;4964263;28;20415;-83
2022/11/10 10:32:18;;;;;;;4.75;1.63;;;18.50;99.90;;;;;;4958559;28;20401;-83
2022/11/10 10:34:46;;;;;;;5.75;1.73;;;18.50;99.90;;;;;;4988766;28;21388;-83
2022/11/10 10:37:56;;;;;;;7.37;1.80;;;18.50;99.90;;;;;;5013752;28;20459;-82
2022/11/10 10:40:24;;;;;;;5.55;1.90;;;18.50;99.90;;;;;;4996090;28;20447;-84
2022/11/10 10:42:58;;;;;;;5.55;2.03;;;18.50;99.90;;;;;;4996960;28;20795;-83
2022/11/10 10:45:28;;;;;;;5.47;2.00;;;18.50;99.90;;;;;;4995985;28;20389;-82
2022/11/10 10:47:57;;;;;;;6.82;1.60;;;18.50;99.90;;;;;;5011976;28;20407;-82
2022/11/10 10:50:41;;;;;;;6.47;1.67;;;18.40;99.90;;;;;;5012621;28;20875;-82
2022/11/10 10:53:20;;;;;;;5.17;1.60;;;18.40;99.90;;;;;;5001522;28;20446;-83
2022/11/10 10:56:07;;;;;;;7.90;1.90;;;18.40;99.90;;;;;;4999414;28;20397;-83
2022/11/10 10:58:59;;;;;;;6.22;1.50;;;18.30;99.90;;;;;;5001509;28;20974;-83
2022/11/10 11:01:32;;;;;;;5.95;1.40;;;18.20;99.90;;;;;;5000054;28;20391;-83
2022/11/10 11:04:04;;;;;;;4.03;1.30;;;18.20;99.90;;;;;;4999822;28;20393;-83
2022/11/10 11:06:36;;;;;;;4.65;1.33;;;18.20;99.90;;;;;;5004035;28;20448;-83
2022/11/10 11:09:18;;;;;;;3.20;1.10;;;18.10;99.90;;;;;;5010724;28;20433;-83
2022/11/10 11:11:58;;;;;;;4.95;1.10;;;18.20;99.90;;;;;;4981693;28;20389;-82
2022/11/10 11:14:28;;;;;;;5.00;1.20;;;18.20;99.90;;;;;;4993793;28;20405;-83
2022/11/10 11:16:57;;;;;;;3.50;1.00;;;18.10;99.90;;;;;;5012684;28;20388;-83
2022/11/10 11:19:38;;;;;;;4.85;1.23;;;18.20;99.90;;;;;;5004740;28;20420;-83
2022/11/10 11:22:36;;;;;;;3.80;0.93;;;18.00;99.90;;;;;;5005039;28;20389;-83
2022/11/10 11:25:09;;;;;;;4.45;1.15;;;18.10;99.90;;;;;;5004930;28;20403;-83
2022/11/10 11:28:05;;;;;;;4.13;1.30;;;18.00;99.90;;;;;;5016830;28;20510;-82
2022/11/10 11:31:10;;;;;;;3.27;1.13;;;18.00;99.90;;;;;;4998828;28;20538;-83
2022/11/10 11:34:00;;;;;;;3.95;1.23;;;17.90;99.90;;;;;;4975519;28;20386;-82
2022/11/10 11:37:01;;;;;;;10.27;1.50;;;17.90;99.90;;;;;;4983901;28;20392;-81
2022/11/10 11:39:42;;;;;;;5.05;1.40;;;17.80;99.90;;;;;;4985621;28;20409;-82
2022/11/10 11:42:39;;;;;;;4.18;1.20;;;17.80;99.90;;;;;;4979465;28;20424;-82
2022/11/10 11:45:21;;;;;;;5.30;1.10;;;17.60;99.90;;;;;;4983418;28;20441;-82
2022/11/10 11:48:10;;;;;;;3.38;1.10;;;17.60;99.90;;;;;;4977170;28;20907;-81
2022/11/10 11:51:37;;;;;;;5.53;1.20;;;17.50;99.90;;;;;;4976419;28;20398;-82
2022/11/10 11:54:41;;;;;;;3.22;1.20;;;17.40;99.90;;;;;;4828253;29;20428;-82
2022/11/10 11:57:19;;;;;;;3.63;1.10;;;17.30;99.90;;;;;;4827102;29;20415;-81
2022/11/10 12:00:09;;;;;;;3.80;1.10;;;17.20;99.90;;;;;;4824648;29;20780;-81
2022/11/10 12:03:10;;;;;;;3.13;1.23;;;17.20;99.90;;;;;;4836046;29;20922;-82
2022/11/10 12:05:55;;;;;;;4.15;1.23;;;17.20;99.90;;;;;;4832929;29;20452;-82
2022/11/10 12:08:38;;;;;;;3.35;1.02;;;17.20;99.90;;;;;;4824315;29;20968;-82
2022/11/10 12:11:20;;;;;;;3.70;1.10;;;17.10;99.90;;;;;;4839627;29;20954;-82
2022/11/10 12:14:05;;;;;;;6.15;1.15;;;17.00;99.90;;;;;;4843002;29;20418;-81
2022/11/10 12:16:34;;;;;;;3.67;1.10;;;17.00;99.90;;;;;;4856708;29;20805;-82
2022/11/10 12:19:19;;;;;;;5.45;1.35;;;16.90;99.90;;;;;;4848855;29;20450;-82
2022/11/10 12:22:06;;;;;;;5.72;1.10;;;16.80;99.90;;;;;;4847828;29;20408;-81
2022/11/10 12:24:50;;;;;;;4.75;1.13;;;16.80;99.90;;;;;;4853388;29;20618;-82
2022/11/10 12:27:25;;;;;;;3.90;1.10;;;16.80;99.90;;;;;;4864993;29;20427;-83
2022/11/10 12:30:09;;;;;;;5.20;1.20;;;16.80;99.90;;;;;;4935574;28;20413;-82
2022/11/10 12:33:02;;;;;;;4.95;2.15;;;16.70;99.90;;;;;;4992489;28;20393;-81
2022/11/10 12:35:40;;;;;;;5.45;1.30;;;16.70;99.90;;;;;;4974992;28;20808;-82
2022/11/10 12:38:20;;;;;;;5.07;1.70;;;16.60;99.90;;;;;;4976076;28;20477;-82
2022/11/10 12:41:02;;;;;;;4.03;1.73;;;16.60;99.90;;;;;;4984115;28;20413;-81
2022/11/10 12:43:58;;;;;;;4.80;1.80;;;16.60;99.90;;;;;;4976063;28;20396;-81
2022/11/10 12:46:25;;;;;;;3.67;1.50;;;16.60;99.90;;;;;;4972481;28;20429;-81
2022/11/10 12:48:54;;;;;;;4.85;1.30;;;16.50;99.90;;;;;;4981575;28;20496;-81
2022/11/10 12:52:11;;;;;;;4.22;1.40;;;16.50;99.90;;;;;;4985346;28;20912;-83
2022/11/10 12:54:40;;;;;;;3.28;1.20;;;16.50;99.90;;;;;;4971177;28;20485;-82
2022/11/10 12:57:26;;;;;;;3.67;1.25;;;16.40;99.90;;;;;;4980870;28;20463;-81
2022/11/10 12:59:55;;;;;;;4.35;1.45;;;16.40;99.90;;;;;;4976341;28;20613;-81
2022/11/10 13:02:25;;;;;;;3.45;1.20;;;16.40;99.90;;;;;;4978232;28;20391;-81
2022/11/10 13:05:15;;;;;;;4.18;1.30;;;16.30;99.90;;;;;;4981761;28;20391;-82
2022/11/10 13:07:48;;;;;;;4.80;1.40;;;16.20;99.90;;;;;;4897808;29;20381;-82
2022/11/10 13:10:18;;;;;;;3.92;1.45;;;16.20;99.90;;;;;;4900874;29;20480;-81
2022/11/10 13:13:13;;;;;;;3.83;1.40;;;16.10;99.90;;;;;;4894029;29;20404;-81
2022/11/10 13:15:43;;;;;;;8.00;4.82;;;16.20;99.90;;;;;;4898439;29;20404;-81
2022/11/10 13:18:30;;;;;;;6.32;2.70;;;16.20;99.90;;;;;;4919244;29;20481;-81
2022/11/10 13:20:58;;;;;;;4.43;1.80;;;16.10;99.90;;;;;;4919039;29;20872;-81
2022/11/10 13:23:51;;;;;;;4.30;1.70;;;16.10;99.90;;;;;;4918815;29;20442;-82